Grande Europa — ICGE — position and weather

sailwx.info

Track history (hours):
 
Tides and Currents Weather Stations Pressure Air Temp Water Temp Dewpoint Dewpoint Depression Visibility Wind Speed Wind Dir Waves Ship Positions

Grande Europa

Last reported at 2017-Jun-26 04:53 UTC. Time now 2017-Jun-26 06:57 UTC.
Position N 40°53' E 012°24'.

Length 183 m; draft 8.4 m.

Type: Ship. MMSI: 247206000.

Date/timePositionNaut miles runAvg speedWind from/ knotsBaromVisibWave heightAir tempDewpointWater temp
2017-Jun-26 04:53N 40°53' E 012°24'717.4
2017-Jun-26 04:29N 40°51' E 012°32'817.4
2017-Jun-26 04:00N 40°48' E 012°43'917.4
2017-Jun-26 03:30N 40°46' E 012°54'917.4
2017-Jun-26 03:00N 40°44' E 013°05'917.6
2017-Jun-26 02:30N 40°41' E 013°16'917.6
2017-Jun-26 02:01N 40°39' E 013°27'917.5
2017-Jun-26 01:31N 40°37' E 013°38'917.5
2017-Jun-26 01:01N 40°35' E 013°50'917.6
2017-Jun-26 00:31N 40°32' E 014°01'917.7
2017-Jun-26 00:00N 40°30' E 014°12'917.8
2017-Jun-25 23:30N 40°31' E 014°24'1317.7
2017-Jun-25 22:48N 40°34' E 014°39'7 1.8
2017-Jun-25 18:40N 40°40' E 014°44'0 0.0
2017-Jun-25 18:22N 40°40' E 014°44'0 0.0
2017-Jun-25 17:58N 40°40' E 014°44'0 0.0
2017-Jun-25 17:25N 40°40' E 014°44'0 0.0
2017-Jun-25 16:58N 40°40' E 014°44'0 0.0
2017-Jun-25 16:28N 40°40' E 014°44'0 0.0
2017-Jun-25 15:52N 40°40' E 014°44'0 0.0
2017-Jun-25 15:28N 40°40' E 014°44'0 0.0
2017-Jun-25 14:55N 40°40' E 014°44'0 0.0
2017-Jun-25 13:52N 40°40' E 014°44'4 0.5
2017-Jun-25 05:44N 40°36' E 014°44'516.7
2017-Jun-25 05:27N 40°32' E 014°44'10517.9
2017-Jun-24 23:36N 38°55' E 015°35'518.4
2017-Jun-24 23:19N 38°50' E 015°38'618.5
2017-Jun-24 23:00N 38°45' E 015°41'918.4
2017-Jun-24 22:30N 38°36' E 015°47'1017.8
2017-Jun-24 21:56N 38°27' E 015°52'2 0.5
2017-Jun-24 17:15N 38°28' E 015°55'0 0.0
2017-Jun-24 15:45N 38°28' E 015°55'0 0.0
2017-Jun-24 14:30N 38°28' E 015°55'1 1.9
2017-Jun-24 14:00N 38°27' E 015°54'3 5.8
2017-Jun-24 13:30N 38°26' E 015°51'612.5
2017-Jun-24 13:00N 38°21' E 015°46'816.5
2017-Jun-24 12:30N 38°15' E 015°39'714.4
2017-Jun-24 12:01N 38°08' E 015°37'816.6
2017-Jun-24 11:30N 37°60' E 015°37'816.9
2017-Jun-24 11:00N 37°53' E 015°44'918.4
2017-Jun-24 10:30N 37°50' E 015°55'7018.6
2017-Jun-24 06:44N 37°29' E 017°20'418.5
2017-Jun-24 06:30N 37°28' E 017°25'1018.6
2017-Jun-24 05:56N 37°24' E 017°37'818.4
2017-Jun-24 05:30N 37°22' E 017°46'918.3
2017-Jun-24 05:00N 37°19' E 017°57'918.4
2017-Jun-24 04:30N 37°16' E 018°08'918.2
2017-Jun-24 04:00N 37°13' E 018°19'1018.2
2017-Jun-24 03:28N 37°11' E 018°31'918.2
2017-Jun-24 03:00N 37°08' E 018°41'9018.0
2017-Jun-23 22:01N 36°41' E 020°28'118.5
2017-Jun-23 21:58N 36°40' E 020°29'5218.3
2017-Jun-23 19:06N 36°25' E 021°31'417.7
2017-Jun-23 18:54N 36°24' E 021°36'717.4
2017-Jun-23 18:30N 36°22' E 021°44'1317.1
2017-Jun-23 17:45N 36°18' E 021°59'8918.1
2017-Jun-23 12:51N 35°55' E 023°45'34717.9
2017-Jun-22 17:30N 34°47' E 030°42'3517.8
2017-Jun-22 15:32N 34°42' E 031°24'318.1
2017-Jun-22 15:23N 34°41' E 031°28'7917.6
2017-Jun-22 10:53N 34°33' E 033°03'616.4
2017-Jun-22 10:31N 34°39' E 033°03'2 3.4
2017-Jun-22 09:58N 34°39' E 033°01'0 0.0
2017-Jun-22 09:25N 34°39' E 033°01'0 0.0
2017-Jun-22 08:58N 34°39' E 033°01'0 0.0
2017-Jun-22 08:28N 34°39' E 033°01'0 0.0
2017-Jun-22 07:58N 34°39' E 033°01'0 0.0
2017-Jun-22 07:28N 34°39' E 033°01'0 0.0
2017-Jun-22 06:58N 34°39' E 033°01'0 0.0
2017-Jun-22 06:28N 34°39' E 033°01'0 0.0
2017-Jun-22 05:58N 34°39' E 033°01'0 0.0
2017-Jun-22 05:28N 34°39' E 033°01'0 0.0
2017-Jun-22 04:58N 34°39' E 033°01'0 0.0
2017-Jun-22 04:28N 34°39' E 033°01'0 0.0
2017-Jun-22 03:58N 34°39' E 033°01'0 0.3
2017-Jun-22 03:30N 34°39' E 033°01'3 5.5
2017-Jun-22 03:00N 34°39' E 033°04'182 7.9
2017-Jun-21 03:46N 31°52' E 034°33'416.1
2017-Jun-21 03:30N 31°51' E 034°38'1 0.0
2017-Jun-20 02:23N 31°51' E 034°38'4312.1
2017-Jun-19 22:48N 32°07' E 033°51'21515.5
2017-Jun-19 08:54N 31°10' E 029°48'16 0.7
2017-Jun-18 11:07N 31°26' E 029°47'1116.5
2017-Jun-18 10:26N 31°37' E 029°44'1415.8
2017-Jun-18 09:35N 31°49' E 029°37'18717.1
2017-Jun-17 22:39N 34°41' E 028°09'316.9
2017-Jun-17 22:28N 34°44' E 028°08'2317.0
2017-Jun-17 21:08N 35°04' E 027°57'217.2
2017-Jun-17 21:00N 35°07' E 027°55'16717.3
2017-Jun-17 11:19N 37°23' E 025°55'617.8
2017-Jun-17 11:00N 37°28' E 025°52'917.6
2017-Jun-17 10:30N 37°36' E 025°48'917.6
2017-Jun-17 09:58N 37°45' E 025°47'54 2.3
2017-Jun-16 10:05N 38°22' E 024°57'3417.0
2017-Jun-16 08:06N 37°54' E 024°34'216.6
2017-Jun-16 07:57N 37°52' E 024°32'916.9
2017-Jun-16 07:24N 37°46' E 024°23'1416.9
2017-Jun-16 06:34N 37°37' E 024°09'216.7
2017-Jun-16 06:27N 37°36' E 024°07'916.6
2017-Jun-16 05:56N 37°31' E 023°58'817.8
2017-Jun-16 05:30N 37°32' E 023°48'815.4
2017-Jun-16 05:00N 37°38' E 023°43'  
Track history (hours):
 
Tides and Currents Weather Stations Pressure Air Temp Water Temp Dewpoint Dewpoint Depression Visibility Wind Speed Wind Dir Waves Ship Positions

Grande Europa

Last reported at 2017-Jun-26 04:53 UTC. Time now 2017-Jun-26 06:57 UTC.
Position N 40°53' E 012°24'.

Length 183 m; draft 8.4 m.

Type: Ship. MMSI: 247206000.

Date/timePositionNaut miles runAvg speedWind from/ knotsBaromVisibWave heightAir tempDewpointWater temp
2017-Jun-26 04:53N 40°53' E 012°24'717.4
2017-Jun-26 04:29N 40°51' E 012°32'817.4
2017-Jun-26 04:00N 40°48' E 012°43'917.4
2017-Jun-26 03:30N 40°46' E 012°54'917.4
2017-Jun-26 03:00N 40°44' E 013°05'917.6
2017-Jun-26 02:30N 40°41' E 013°16'917.6
2017-Jun-26 02:01N 40°39' E 013°27'917.5
2017-Jun-26 01:31N 40°37' E 013°38'917.5
2017-Jun-26 01:01N 40°35' E 013°50'917.6
2017-Jun-26 00:31N 40°32' E 014°01'917.7
2017-Jun-26 00:00N 40°30' E 014°12'917.8
2017-Jun-25 23:30N 40°31' E 014°24'1317.7
2017-Jun-25 22:48N 40°34' E 014°39'7 1.8
2017-Jun-25 18:40N 40°40' E 014°44'0 0.0
2017-Jun-25 18:22N 40°40' E 014°44'0 0.0
2017-Jun-25 17:58N 40°40' E 014°44'0 0.0
2017-Jun-25 17:25N 40°40' E 014°44'0 0.0
2017-Jun-25 16:58N 40°40' E 014°44'0 0.0
2017-Jun-25 16:28N 40°40' E 014°44'0 0.0
2017-Jun-25 15:52N 40°40' E 014°44'0 0.0
2017-Jun-25 15:28N 40°40' E 014°44'0 0.0
2017-Jun-25 14:55N 40°40' E 014°44'0 0.0
2017-Jun-25 13:52N 40°40' E 014°44'4 0.5
2017-Jun-25 05:44N 40°36' E 014°44'516.7
2017-Jun-25 05:27N 40°32' E 014°44'10517.9
2017-Jun-24 23:36N 38°55' E 015°35'518.4
2017-Jun-24 23:19N 38°50' E 015°38'618.5
2017-Jun-24 23:00N 38°45' E 015°41'918.4
2017-Jun-24 22:30N 38°36' E 015°47'1017.8
2017-Jun-24 21:56N 38°27' E 015°52'2 0.5
2017-Jun-24 17:15N 38°28' E 015°55'0 0.0
2017-Jun-24 15:45N 38°28' E 015°55'0 0.0
2017-Jun-24 14:30N 38°28' E 015°55'1 1.9
2017-Jun-24 14:00N 38°27' E 015°54'3 5.8
2017-Jun-24 13:30N 38°26' E 015°51'612.5
2017-Jun-24 13:00N 38°21' E 015°46'816.5
2017-Jun-24 12:30N 38°15' E 015°39'714.4
2017-Jun-24 12:01N 38°08' E 015°37'816.6
2017-Jun-24 11:30N 37°60' E 015°37'816.9
2017-Jun-24 11:00N 37°53' E 015°44'918.4
2017-Jun-24 10:30N 37°50' E 015°55'7018.6
2017-Jun-24 06:44N 37°29' E 017°20'418.5
2017-Jun-24 06:30N 37°28' E 017°25'1018.6
2017-Jun-24 05:56N 37°24' E 017°37'818.4
2017-Jun-24 05:30N 37°22' E 017°46'918.3
2017-Jun-24 05:00N 37°19' E 017°57'918.4
2017-Jun-24 04:30N 37°16' E 018°08'918.2
2017-Jun-24 04:00N 37°13' E 018°19'1018.2
2017-Jun-24 03:28N 37°11' E 018°31'918.2
2017-Jun-24 03:00N 37°08' E 018°41'9018.0
2017-Jun-23 22:01N 36°41' E 020°28'118.5
2017-Jun-23 21:58N 36°40' E 020°29'5218.3
2017-Jun-23 19:06N 36°25' E 021°31'417.7
2017-Jun-23 18:54N 36°24' E 021°36'717.4
2017-Jun-23 18:30N 36°22' E 021°44'1317.1
2017-Jun-23 17:45N 36°18' E 021°59'8918.1
2017-Jun-23 12:51N 35°55' E 023°45'34717.9
2017-Jun-22 17:30N 34°47' E 030°42'3517.8
2017-Jun-22 15:32N 34°42' E 031°24'318.1
2017-Jun-22 15:23N 34°41' E 031°28'7917.6
2017-Jun-22 10:53N 34°33' E 033°03'616.4
2017-Jun-22 10:31N 34°39' E 033°03'2 3.4
2017-Jun-22 09:58N 34°39' E 033°01'0 0.0
2017-Jun-22 09:25N 34°39' E 033°01'0 0.0
2017-Jun-22 08:58N 34°39' E 033°01'0 0.0
2017-Jun-22 08:28N 34°39' E 033°01'0 0.0
2017-Jun-22 07:58N 34°39' E 033°01'0 0.0
2017-Jun-22 07:28N 34°39' E 033°01'0 0.0
2017-Jun-22 06:58N 34°39' E 033°01'0 0.0
2017-Jun-22 06:28N 34°39' E 033°01'0 0.0
2017-Jun-22 05:58N 34°39' E 033°01'0 0.0
2017-Jun-22 05:28N 34°39' E 033°01'0 0.0
2017-Jun-22 04:58N 34°39' E 033°01'0 0.0
2017-Jun-22 04:28N 34°39' E 033°01'0 0.0
2017-Jun-22 03:58N 34°39' E 033°01'0 0.3
2017-Jun-22 03:30N 34°39' E 033°01'3 5.5
2017-Jun-22 03:00N 34°39' E 033°04'182 7.9
2017-Jun-21 03:46N 31°52' E 034°33'416.1
2017-Jun-21 03:30N 31°51' E 034°38'1 0.0
2017-Jun-20 02:23N 31°51' E 034°38'4312.1
2017-Jun-19 22:48N 32°07' E 033°51'21515.5
2017-Jun-19 08:54N 31°10' E 029°48'16 0.7
2017-Jun-18 11:07N 31°26' E 029°47'1116.5
2017-Jun-18 10:26N 31°37' E 029°44'1415.8
2017-Jun-18 09:35N 31°49' E 029°37'18717.1
2017-Jun-17 22:39N 34°41' E 028°09'316.9
2017-Jun-17 22:28N 34°44' E 028°08'2317.0
2017-Jun-17 21:08N 35°04' E 027°57'217.2
2017-Jun-17 21:00N 35°07' E 027°55'16717.3
2017-Jun-17 11:19N 37°23' E 025°55'617.8
2017-Jun-17 11:00N 37°28' E 025°52'917.6
2017-Jun-17 10:30N 37°36' E 025°48'917.6
2017-Jun-17 09:58N 37°45' E 025°47'54 2.3
2017-Jun-16 10:05N 38°22' E 024°57'3417.0
2017-Jun-16 08:06N 37°54' E 024°34'216.6
2017-Jun-16 07:57N 37°52' E 024°32'916.9
2017-Jun-16 07:24N 37°46' E 024°23'1416.9
2017-Jun-16 06:34N 37°37' E 024°09'216.7
2017-Jun-16 06:27N 37°36' E 024°07'916.6
2017-Jun-16 05:56N 37°31' E 023°58'817.8
2017-Jun-16 05:30N 37°32' E 023°48'815.4
2017-Jun-16 05:00N 37°38' E 023°43'  

Dump ship's entire track history